Terminal Aerodrome Forecast
Issued by NWS Wakefield, VA

Home | Current Version | Previous Version | Text Only | Print | Product List | Glossary On
Versions: 1 2 3 4 5 6 7 8 9 10 11 12 13 14 15 16 17 18 19
000
FTUS41 KAKQ 272300 RRA
TAFORF
TAF
KORF 272342Z 2800/2824 03012KT P6SM SCT035
     FM280500 02013G19KT P6SM SCT035 BKN200
     FM281200 02012KT P6SM BKN120 OVC200
     FM281800 03012KT P6SM FEW020 BKN100=

USA.gov is the U.S. government's official web portal to all federal, state and local government web resources and services.